Ringgold, Nebraska
Current Conditions -  °F | °C
As of 4:53 PM on Tuesday 21 Oct 2014 (Local Time) from KLBF Reporting Station
Clear Clear  
Wind Chill: 26°   Ceiling: Unl
Heat Index: 26°   Visibility: 10mi
Dew Point: 12°   Wind: 16mph
Humidity: 42%   Direction: 170°S
Pressure: 29.89"   Gusts: 25mph
Location:  41.5681°N, 101.06°W
Report Text: KLBF 212153Z AUTO 17014G22KT 10SM CLR 26/12 A2989 RMK AO2 PK WND 17027/2127 SLP106 T02560117
Loading
Personal Weather Stations






























Interactive Weather Map
Tropical Storm Tracking
New forecast layout! Learn more

10-Day Weather Forecast

Advertisements
Track Severe Weather on mobile